Time;durP1;ratioP1;P1;durP2;ratioP2;P2;SDS_P1;SDS_P2;PMS_P1;PMS_P2;Temp;Humidity;BMP_temperature;BMP_pressure;BME280_temperature;BME280_humidity;BME280_pressure;Samples;Min_cycle;Max_cycle;Signal;HPM_P1;HPM_P2
2022/04/16 00:02:19;;;;;;;321.75;295.08;;;;;;;19.01;36.35;94439.06;4998437;28;20373;-73
2022/04/16 00:04:47;;;;;;;310.33;284.65;;;;;;;19.02;36.46;94435.16;4999963;28;20071;-73
2022/04/16 00:07:13;;;;;;;315.05;289.08;;;;;;;19.03;36.40;94440.13;5023133;28;20490;-73
2022/04/16 00:09:39;;;;;;;318.23;292.02;;;;;;;19.03;36.28;94434.69;5004218;28;20057;-73
2022/04/16 00:12:07;;;;;;;326.73;300.10;;;;;;;19.02;36.34;94433.19;5007644;28;20063;-73
2022/04/16 00:14:35;;;;;;;309.45;284.10;;;;;;;19.03;36.44;94433.94;5022974;28;20033;-73
2022/04/16 00:17:01;;;;;;;321.05;294.70;;;;;;;19.03;36.25;94442.06;5011693;28;20068;-73
2022/04/16 00:19:27;;;;;;;316.33;290.60;;;;;;;19.01;36.33;94437.09;5045459;28;20037;-73
2022/04/16 00:22:12;;;;;;;324.80;298.33;;;;;;;19.01;36.22;94430.94;5025179;28;20115;-73
2022/04/16 00:24:42;;;;;;;314.25;288.70;;;;;;;19.01;36.36;94430.94;5017552;28;20045;-73
2022/04/16 00:27:12;;;;;;;321.02;294.90;;;;;;;19.01;36.05;94431.69;5026080;28;20052;-73
2022/04/16 00:29:39;;;;;;;304.05;279.13;;;;;;;18.99;36.17;94420.53;5006992;28;20053;-72
2022/04/16 00:32:06;;;;;;;314.92;288.20;;;;;;;19.00;36.13;94426.72;5023135;28;20098;-71
2022/04/16 00:34:33;;;;;;;324.08;297.25;;;;;;;19.00;36.24;94426.72;5003212;28;20060;-72
2022/04/16 00:36:59;;;;;;;319.00;292.27;;;;;;;18.99;36.00;94425.19;5009340;28;20149;-72
2022/04/16 00:39:26;;;;;;;310.00;284.10;;;;;;;19.00;36.19;94426.72;5038500;28;20433;-72
2022/04/16 00:41:52;;;;;;;323.45;297.33;;;;;;;18.99;36.24;94425.19;5009355;28;20037;-72
2022/04/16 00:44:20;;;;;;;328.65;301.15;;;;;;;18.99;36.11;94425.19;5015085;28;20132;-72
2022/04/16 00:46:47;;;;;;;320.77;294.67;;;;;;;18.99;36.04;94425.97;5010327;28;20056;-71
2022/04/16 00:49:13;;;;;;;322.48;296.27;;;;;;;18.97;36.06;94427.59;5017816;28;20148;-72
2022/04/16 00:51:48;;;;;;;331.00;304.63;;;;;;;18.97;36.13;94427.59;5021184;28;20168;-72
2022/04/16 00:54:33;;;;;;;342.77;314.63;;;;;;;18.95;35.94;94430.00;4997761;28;20169;-72
2022/04/16 00:57:07;;;;;;;333.50;305.95;;;;;;;18.94;36.05;94423.09;5037802;28;20065;-72
2022/04/16 00:59:33;;;;;;;318.52;292.00;;;;;;;18.96;36.11;94424.16;5001297;28;20543;-72
2022/04/16 01:01:59;;;;;;;320.30;293.33;;;;;;;18.97;35.97;94424.91;5038497;28;20040;-72
2022/04/16 01:04:26;;;;;;;321.15;294.83;;;;;;;18.93;36.06;94422.34;5039651;28;20049;-72
2022/04/16 01:06:53;;;;;;;338.52;309.98;;;;;;;18.96;36.04;94417.97;5023306;28;20111;-72
2022/04/16 01:09:19;;;;;;;323.08;297.13;;;;;;;18.96;36.15;94421.44;5023739;28;20061;-72
2022/04/16 01:11:46;;;;;;;314.63;288.73;;;;;;;18.98;36.24;94420.97;5024081;28;20053;-72
2022/04/16 01:14:19;;;;;;;318.75;292.05;;;;;;;18.98;36.05;94420.97;5028012;28;20207;-72
2022/04/16 01:16:45;;;;;;;323.73;297.42;;;;;;;18.97;35.86;94414.81;5044421;28;20140;-72
2022/04/16 01:19:11;;;;;;;325.10;299.02;;;;;;;18.98;36.11;94420.97;5026056;28;20048;-72
2022/04/16 01:21:39;;;;;;;309.95;284.52;;;;;;;18.98;36.01;94427.16;5046169;28;20049;-72
2022/04/16 01:24:05;;;;;;;334.30;306.95;;;;;;;18.96;35.81;94421.44;5008002;28;20057;-71
2022/04/16 01:26:32;;;;;;;317.50;291.10;;;;;;;18.97;35.85;94417.53;5024048;28;20413;-72
2022/04/16 01:29:01;;;;;;;316.27;289.98;;;;;;;18.96;35.91;94421.44;5038490;28;20064;-72
2022/04/16 01:31:30;;;;;;;324.58;297.67;;;;;;;18.97;36.08;94416.78;5026083;28;20087;-75
2022/04/16 01:33:57;;;;;;;325.13;298.38;;;;;;;18.96;35.91;94426.84;5035030;28;20056;-73
2022/04/16 01:36:25;;;;;;;303.90;278.75;;;;;;;18.97;36.05;94419.47;5022974;28;20057;-73
2022/04/16 01:38:51;;;;;;;315.15;288.35;;;;;;;18.97;35.81;94417.53;5023315;28;20509;-73
2022/04/16 01:41:17;;;;;;;318.95;292.33;;;;;;;18.96;35.99;94424.16;5005878;28;20044;-73
2022/04/16 01:43:43;;;;;;;335.52;307.58;;;;;;;18.97;35.91;94419.47;5002919;28;20126;-73
2022/04/16 01:46:09;;;;;;;322.38;295.80;;;;;;;18.97;36.00;94424.91;5028648;28;20080;-73
2022/04/16 01:48:35;;;;;;;318.30;291.65;;;;;;;18.96;35.80;94426.84;5025067;28;20531;-73
2022/04/16 01:51:02;;;;;;;331.45;304.13;;;;;;;18.95;36.05;94419.94;5001514;28;20045;-72
2022/04/16 01:53:28;;;;;;;324.83;298.10;;;;;;;18.95;35.95;94422.63;5008448;28;20084;-72
2022/04/16 01:55:54;;;;;;;324.73;297.67;;;;;;;18.95;36.12;94427.31;5021151;28;20040;-73
2022/04/16 01:58:21;;;;;;;325.05;298.02;;;;;;;18.95;35.93;94422.63;5004027;28;20061;-73
2022/04/16 02:00:48;;;;;;;318.83;292.98;;;;;;;18.95;36.06;94417.22;5026032;28;20045;-73
2022/04/16 02:03:15;;;;;;;316.15;289.90;;;;;;;18.95;35.93;94416.47;5007018;28;20044;-73
2022/04/16 02:05:41;;;;;;;322.45;295.75;;;;;;;18.95;36.00;94419.16;5022729;28;20456;-73
2022/04/16 02:08:08;;;;;;;321.33;294.65;;;;;;;18.95;35.88;94419.94;5019941;28;20063;-73
2022/04/16 02:10:34;;;;;;;325.55;299.08;;;;;;;18.94;35.92;94415.72;5021779;28;20061;-72
2022/04/16 02:13:03;;;;;;;329.83;302.35;;;;;;;18.94;35.88;94412.25;5023294;28;20047;-72
2022/04/16 02:15:30;;;;;;;319.48;293.38;;;;;;;18.92;36.00;94409.22;5025105;28;20135;-73
2022/04/16 02:17:56;;;;;;;324.48;297.15;;;;;;;18.92;35.93;94409.22;5023596;28;20064;-73
2022/04/16 02:20:45;;;;;;;324.63;297.77;;;;;;;18.90;35.71;94409.69;5019644;28;20037;-73
2022/04/16 02:23:11;;;;;;;316.10;289.70;;;;;;;18.92;35.97;94411.94;5008325;28;20049;-73
2022/04/16 02:25:41;;;;;;;316.88;290.60;;;;;;;18.91;35.90;94408.47;5025646;28;20128;-73
2022/04/16 02:28:08;;;;;;;318.30;291.48;;;;;;;18.91;35.79;94408.47;5019158;28;20087;-73
2022/04/16 02:30:34;;;;;;;317.13;290.48;;;;;;;18.91;35.64;94419.31;5029709;28;20076;-72
2022/04/16 02:33:00;;;;;;;337.75;309.85;;;;;;;18.91;35.90;94415.84;5015424;28;20248;-72
2022/04/16 02:35:26;;;;;;;321.70;295.35;;;;;;;18.91;35.89;94411.19;5002956;28;20103;-72
2022/04/16 02:37:52;;;;;;;324.23;296.88;;;;;;;18.91;35.77;94411.19;5017566;28;20057;-73
2022/04/16 02:40:18;;;;;;;316.42;289.45;;;;;;;18.91;35.98;94405.00;5000836;28;20103;-72
2022/04/16 02:42:47;;;;;;;326.35;299.38;;;;;;;18.90;35.83;94401.53;5019608;28;20520;-72
2022/04/16 02:48:01;;;;;;;321.40;294.70;;;;;;;18.89;35.54;94416.31;5014968;28;20060;-73
2022/04/16 02:50:28;;;;;;;318.52;291.83;;;;;;;18.87;35.73;94417.94;5003587;28;20347;-73
2022/04/16 02:52:58;;;;;;;328.58;300.00;;;;;;;18.87;35.91;94415.25;5037732;28;20060;-73
2022/04/16 02:55:28;;;;;;;318.00;291.35;;;;;;;18.87;35.84;94418.72;5005739;28;20527;-72
2022/04/16 02:57:55;;;;;;;321.80;294.88;;;;;;;18.87;35.84;94426.84;5020863;28;20041;-73
2022/04/16 03:00:28;;;;;;;354.70;322.58;;;;;;;18.86;35.85;94425.31;5065632;27;20401;-71
2022/04/16 03:02:54;;;;;;;324.40;297.27;;;;;;;18.87;35.74;94426.09;5033218;28;20044;-71
2022/04/16 03:05:20;;;;;;;313.55;287.02;;;;;;;18.87;35.55;94424.13;5053680;28;20049;-71
2022/04/16 03:07:47;;;;;;;335.50;307.42;;;;;;;18.89;35.72;94431.81;5069501;28;20045;-71
2022/04/16 03:10:13;;;;;;;332.35;304.10;;;;;;;18.88;35.69;94433.75;5054197;28;20636;-72
2022/04/16 03:12:47;;;;;;;309.15;283.05;;;;;;;18.86;35.65;94428.03;5050257;28;20063;-72
2022/04/16 03:18:05;;;;;;;323.05;294.95;;;;;;;18.87;35.51;94426.09;5071369;28;20085;-72
2022/04/16 03:20:31;;;;;;;313.25;286.45;;;;;;;18.85;35.49;94423.09;5035697;28;20052;-72
2022/04/16 03:22:58;;;;;;;330.85;303.05;;;;;;;18.86;35.63;94428.03;5071691;28;20074;-73
2022/04/16 03:25:25;;;;;;;320.63;293.27;;;;;;;18.86;35.79;94440.84;5073639;28;20041;-72
2022/04/16 03:27:50;;;;;;;322.63;295.17;;;;;;;18.85;35.67;94431.22;5065125;28;20047;-72
2022/04/16 03:30:16;;;;;;;336.98;309.23;;;;;;;18.84;35.59;94430.47;5069773;28;20040;-73
2022/04/16 03:32:46;;;;;;;320.83;294.27;;;;;;;18.85;35.68;94439.34;5070482;28;20093;-72
2022/04/16 03:35:12;;;;;;;319.50;292.52;;;;;;;18.85;35.55;94426.53;5068242;28;20044;-72
2022/04/16 03:37:37;;;;;;;337.80;309.08;;;;;;;18.84;35.62;94421.59;5068730;28;20044;-73
2022/04/16 03:40:05;;;;;;;331.52;303.83;;;;;;;18.86;35.43;94424.56;5070405;28;20114;-72
2022/04/16 03:42:31;;;;;;;322.90;295.92;;;;;;;18.85;35.42;94425.81;5073192;28;20055;-72
2022/04/16 03:44:58;;;;;;;328.73;301.15;;;;;;;18.84;35.61;94429.72;5071716;28;20245;-72
2022/04/16 03:47:24;;;;;;;334.15;305.13;;;;;;;18.82;35.35;94422.03;5068878;28;20051;-72
2022/04/16 03:49:51;;;;;;;335.05;306.95;;;;;;;18.84;35.35;94425.06;5067407;28;20408;-73
2022/04/16 03:52:17;;;;;;;327.63;300.08;;;;;;;18.83;35.31;94428.22;5074971;28;20044;-72
2022/04/16 04:00:12;;;;;;;328.33;300.85;;;;;;;18.86;35.39;94421.88;5069683;28;20044;-73
2022/04/16 04:02:38;;;;;;;344.73;315.42;;;;;;;18.86;35.44;94425.31;5066767;28;20135;-72
2022/04/16 04:05:06;;;;;;;322.15;295.70;;;;;;;18.87;35.26;94426.84;5060155;28;20661;-73
2022/04/16 04:07:32;;;;;;;334.20;305.55;;;;;;;18.89;35.52;94427.13;5066654;28;20032;-73
2022/04/16 04:09:58;;;;;;;340.35;312.52;;;;;;;18.90;35.45;94434.06;5052698;28;20076;-73
2022/04/16 04:12:24;;;;;;;337.70;309.98;;;;;;;18.90;35.28;94433.31;5055822;28;20110;-72
2022/04/16 04:14:50;;;;;;;334.10;306.85;;;;;;;18.92;35.43;94441.75;5053153;28;20048;-72
2022/04/16 04:17:15;;;;;;;341.77;313.77;;;;;;;18.92;35.06;94434.38;5052800;28;20063;-72
2022/04/16 04:19:42;;;;;;;336.05;309.05;;;;;;;18.92;35.17;94444.47;5057699;28;20154;-72
2022/04/16 04:22:11;;;;;;;324.67;297.90;;;;;;;18.90;35.13;94439.50;5032450;28;20112;-73
2022/04/16 04:24:38;;;;;;;328.13;300.80;;;;;;;18.93;34.96;94433.16;5049825;28;20041;-72
2022/04/16 04:27:04;;;;;;;334.30;307.02;;;;;;;18.96;35.08;94440.41;5050939;28;20500;-72
2022/04/16 04:29:30;;;;;;;335.13;307.80;;;;;;;18.98;35.20;94438.00;5059305;28;20123;-72
2022/04/16 04:31:56;;;;;;;345.02;316.40;;;;;;;19.00;35.27;94437.56;5054773;28;20040;-72
2022/04/16 04:34:22;;;;;;;344.33;317.10;;;;;;;19.01;35.13;94447.94;5060101;28;20454;-72
2022/04/16 04:36:48;;;;;;;340.27;313.10;;;;;;;19.02;35.02;94438.63;5061195;28;20090;-72
2022/04/16 04:39:14;;;;;;;339.55;311.98;;;;;;;19.05;35.06;94443.13;5053835;28;20048;-72
2022/04/16 04:41:42;;;;;;;325.40;298.80;;;;;;;19.07;35.13;94454.28;5058820;28;20047;-73
2022/04/16 04:44:15;;;;;;;343.73;315.65;;;;;;;19.05;34.95;94453.97;5055530;28;20397;-73
2022/04/16 04:46:42;;;;;;;341.13;313.45;;;;;;;19.02;34.97;94454.88;5057134;28;20060;-72
2022/04/16 04:49:08;;;;;;;339.80;312.13;;;;;;;18.99;34.85;94455.00;5051960;28;20082;-73
2022/04/16 04:51:42;;;;;;;337.50;310.02;;;;;;;18.95;34.85;94457.88;5060140;28;20420;-72
2022/04/16 04:54:08;;;;;;;348.92;320.80;;;;;;;18.93;34.84;94462.22;5060626;28;20569;-72
2022/04/16 04:56:35;;;;;;;339.63;311.95;;;;;;;18.90;34.92;94461.16;5058091;28;20033;-72
2022/04/16 04:59:01;;;;;;;351.17;322.45;;;;;;;18.90;34.94;94458.47;5053505;28;20033;-73
2022/04/16 05:01:26;;;;;;;332.20;304.88;;;;;;;18.90;34.63;94461.16;5043827;28;20033;-72
2022/04/16 05:03:52;;;;;;;344.67;315.27;;;;;;;18.89;34.75;94462.38;5038271;28;20481;-73
2022/04/16 05:06:18;;;;;;;361.27;329.83;;;;;;;18.88;34.71;94460.88;5042305;28;20146;-72
2022/04/16 05:08:44;;;;;;;343.83;314.13;;;;;;;18.88;34.87;94462.81;5041260;28;20127;-72
2022/04/16 05:11:11;;;;;;;361.13;330.73;;;;;;;18.90;34.93;94465.84;5024151;28;20071;-72
2022/04/16 05:13:37;;;;;;;369.98;338.73;;;;;;;18.92;34.69;94463.44;5041478;28;20047;-72
2022/04/16 05:16:05;;;;;;;352.67;323.63;;;;;;;18.90;34.69;94458.47;5040007;28;20048;-72
2022/04/16 05:18:31;;;;;;;357.35;326.98;;;;;;;18.88;34.65;94468.25;5041640;28;20064;-72
2022/04/16 05:20:57;;;;;;;346.63;317.88;;;;;;;18.88;34.78;94470.94;5045422;28;20047;-73
2022/04/16 05:23:23;;;;;;;350.10;321.08;;;;;;;18.87;34.80;94475.63;5036949;28;20048;-73
2022/04/16 05:25:49;;;;;;;358.58;328.45;;;;;;;18.87;34.74;94467.50;5016688;28;22733;-73
2022/04/16 05:28:15;;;;;;;338.88;310.35;;;;;;;18.86;34.52;94471.41;5022789;28;20071;-72
2022/04/16 05:30:48;;;;;;;355.90;324.58;;;;;;;18.84;34.49;94468.41;5041295;28;20044;-72
2022/04/16 05:35:59;;;;;;;338.40;309.33;;;;;;;18.86;34.78;94474.09;5038935;28;20079;-73
2022/04/16 05:38:25;;;;;;;344.45;315.08;;;;;;;18.87;34.59;94489.16;5036011;28;20125;-72
2022/04/16 05:40:50;;;;;;;355.75;325.40;;;;;;;18.87;34.42;94488.41;5039096;28;20056;-71
2022/04/16 05:43:16;;;;;;;346.05;316.60;;;;;;;18.86;34.56;94481.47;5039647;28;20115;-72
2022/04/16 05:45:42;;;;;;;353.73;323.27;;;;;;;18.84;34.63;94492.03;5040079;28;20041;-72
2022/04/16 05:48:07;;;;;;;355.73;325.05;;;;;;;18.83;34.47;94482.41;5040489;28;20759;-72
2022/04/16 05:50:34;;;;;;;355.70;325.55;;;;;;;18.83;34.74;94490.53;5023763;28;20041;-71
2022/04/16 05:53:00;;;;;;;355.10;325.33;;;;;;;18.83;34.61;94495.94;5039349;28;20289;-73
2022/04/16 05:55:26;;;;;;;349.58;319.90;;;;;;;18.82;34.51;94491.75;5043173;28;20052;-69
2022/04/16 05:57:52;;;;;;;351.88;321.77;;;;;;;18.79;34.41;94498.81;5041587;28;20415;-70
2022/04/16 06:00:17;;;;;;;355.80;324.20;;;;;;;18.79;34.49;94500.75;5035263;28;20052;-71
2022/04/16 06:02:43;;;;;;;354.80;324.85;;;;;;;18.80;34.62;94502.25;5044716;28;20729;-70
2022/04/16 06:05:09;;;;;;;352.20;322.33;;;;;;;18.80;34.58;94502.25;5045251;28;20074;-69
2022/04/16 06:07:35;;;;;;;338.63;309.65;;;;;;;18.79;34.45;94506.94;5045389;28;20060;-69
2022/04/16 06:10:01;;;;;;;346.55;316.80;;;;;;;18.79;34.37;94508.88;5043958;28;20409;-69
2022/04/16 06:12:27;;;;;;;341.05;312.88;;;;;;;18.81;34.71;94512.66;5043101;28;21182;-70
2022/04/16 06:14:53;;;;;;;330.33;302.45;;;;;;;18.78;34.47;94508.13;5041628;28;21480;-71
2022/04/16 06:17:19;;;;;;;359.33;328.75;;;;;;;18.78;34.73;94507.38;5023058;28;20049;-71
2022/04/16 06:19:45;;;;;;;347.65;318.45;;;;;;;18.81;34.54;94507.25;5022835;28;20080;-70
2022/04/16 06:22:11;;;;;;;346.88;317.92;;;;;;;18.84;34.57;94502.88;5024771;28;20140;-70
2022/04/16 06:24:41;;;;;;;353.30;323.60;;;;;;;18.83;34.28;94512.22;5042230;28;20056;-71
2022/04/16 06:27:07;;;;;;;353.08;323.00;;;;;;;18.86;34.67;94512.03;5043688;28;20529;-72
2022/04/16 06:29:33;;;;;;;359.48;329.15;;;;;;;18.86;34.40;94511.28;5042122;28;20060;-72
2022/04/16 06:31:58;;;;;;;347.40;318.23;;;;;;;18.86;34.51;94503.91;5040034;28;20037;-73
2022/04/16 06:34:24;;;;;;;341.42;313.52;;;;;;;18.87;34.31;94512.81;5024123;28;20101;-70
2022/04/16 06:36:50;;;;;;;345.30;316.50;;;;;;;18.84;34.31;94506.34;5040041;28;21894;-70
2022/04/16 06:39:15;;;;;;;357.58;327.48;;;;;;;18.85;34.51;94507.81;5040979;28;20071;-71
2022/04/16 06:41:41;;;;;;;342.52;314.08;;;;;;;18.86;34.38;94503.16;5043601;28;22111;-71
2022/04/16 06:44:07;;;;;;;331.70;303.85;;;;;;;18.87;34.30;94508.13;5042288;28;20202;-70
2022/04/16 06:46:32;;;;;;;350.98;321.17;;;;;;;18.88;34.33;94506.19;5036361;28;20053;-70
2022/04/16 06:48:58;;;;;;;338.25;310.00;;;;;;;18.87;34.37;94513.56;5021654;28;20163;-70
2022/04/16 06:51:24;;;;;;;360.80;330.40;;;;;;;18.86;34.57;94506.63;5036132;28;20932;-72
2022/04/16 06:53:49;;;;;;;360.70;329.85;;;;;;;18.83;34.51;94512.22;5037128;28;20086;-71
2022/04/16 06:56:15;;;;;;;358.42;327.80;;;;;;;18.81;34.48;94511.91;5037233;28;20076;-72
2022/04/16 06:58:41;;;;;;;337.45;309.00;;;;;;;18.82;34.48;94500.63;5037028;28;20044;-72
2022/04/16 07:01:06;;;;;;;350.23;320.10;;;;;;;18.84;34.40;94503.63;5037433;28;20052;-72
2022/04/16 07:03:32;;;;;;;356.08;325.40;;;;;;;18.83;34.45;94512.97;5038636;28;20044;-72
2022/04/16 07:05:57;;;;;;;355.88;325.75;;;;;;;18.84;34.39;94509.06;5021402;28;20048;-72
2022/04/16 07:08:23;;;;;;;359.55;329.10;;;;;;;18.83;34.37;94502.13;5016794;28;20780;-71
2022/04/16 07:10:48;;;;;;;351.20;321.25;;;;;;;18.83;34.56;94510.25;5036925;28;20421;-70
2022/04/16 07:13:14;;;;;;;348.83;319.15;;;;;;;18.83;34.46;94509.50;5036878;28;20543;-70
2022/04/16 07:15:39;;;;;;;342.17;312.63;;;;;;;18.86;34.37;94522.88;5037034;28;21979;-70
2022/04/16 07:18:07;;;;;;;346.30;316.50;;;;;;;18.87;34.45;94526.34;5038559;28;20102;-71
2022/04/16 07:20:34;;;;;;;355.27;325.20;;;;;;;18.85;34.37;94526.06;5039819;28;20207;-70
2022/04/16 07:22:59;;;;;;;354.50;324.17;;;;;;;18.88;34.17;94523.19;5040660;28;20334;-70
2022/04/16 07:25:26;;;;;;;352.13;321.90;;;;;;;18.84;34.05;94525.31;5022576;28;20045;-69
2022/04/16 07:27:52;;;;;;;351.58;321.70;;;;;;;18.83;34.25;94523.06;5040931;28;20036;-69
2022/04/16 07:30:18;;;;;;;340.23;311.10;;;;;;;18.85;34.32;94526.06;5048833;28;20155;-70
2022/04/16 07:32:43;;;;;;;341.20;312.33;;;;;;;18.85;34.09;94526.78;5038038;28;21849;-70
2022/04/16 07:35:09;;;;;;;343.95;314.65;;;;;;;18.83;33.95;94523.06;5041316;28;20048;-70
2022/04/16 07:37:35;;;;;;;343.48;313.77;;;;;;;18.83;34.28;94526.53;5038556;28;20051;-70
2022/04/16 07:40:01;;;;;;;352.85;321.50;;;;;;;18.85;34.27;94536.91;5029888;28;20053;-70
2022/04/16 07:42:28;;;;;;;342.88;313.00;;;;;;;18.84;34.45;94532.69;5039283;28;20101;-71
2022/04/16 07:44:54;;;;;;;344.63;315.50;;;;;;;18.83;34.20;94536.59;5017928;28;20685;-69
2022/04/16 07:47:20;;;;;;;360.88;329.38;;;;;;;18.80;34.20;94532.81;5041766;28;20610;-72
2022/04/16 07:49:46;;;;;;;354.90;324.73;;;;;;;18.76;34.12;94537.63;5020349;28;20128;-69
2022/04/16 07:52:12;;;;;;;341.17;312.45;;;;;;;18.75;34.34;94534.16;5040722;28;20504;-70
2022/04/16 07:54:38;;;;;;;353.50;324.02;;;;;;;18.74;34.25;94543.50;5037771;28;20063;-68
2022/04/16 07:57:05;;;;;;;346.75;317.33;;;;;;;18.78;34.39;94548.03;5041101;28;20051;-69
2022/04/16 07:59:31;;;;;;;370.50;340.00;;;;;;;18.78;34.30;94553.44;5034984;28;20053;-68
2022/04/16 08:01:56;;;;;;;360.48;329.40;;;;;;;18.78;34.35;94553.44;5040513;28;20612;-69
2022/04/16 08:04:22;;;;;;;342.40;313.00;;;;;;;18.77;34.30;94552.69;5023597;28;20114;-70
2022/04/16 08:06:48;;;;;;;363.13;332.35;;;;;;;18.74;34.24;94551.63;5040697;28;20262;-70
2022/04/16 08:09:14;;;;;;;347.90;318.20;;;;;;;18.73;34.32;94558.25;5040228;28;20121;-69
2022/04/16 08:11:40;;;;;;;349.52;319.50;;;;;;;18.74;34.31;94561.69;5040277;28;20782;-70
2022/04/16 08:14:05;;;;;;;350.55;321.90;;;;;;;18.69;34.14;94560.31;5041779;28;20223;-70
2022/04/16 08:16:32;;;;;;;354.95;324.40;;;;;;;18.74;34.29;94559.00;5038231;28;21055;-69
2022/04/16 08:19:00;;;;;;;366.65;335.88;;;;;;;18.74;34.22;94559.00;5039409;28;20060;-70
2022/04/16 08:21:26;;;;;;;355.48;324.95;;;;;;;18.77;34.21;94562.78;5040180;28;20047;-69
2022/04/16 08:23:56;;;;;;;367.75;336.13;;;;;;;18.80;34.08;94561.88;5040143;28;20139;-70
2022/04/16 08:26:23;;;;;;;361.55;330.88;;;;;;;18.79;34.21;94558.41;5037208;28;20043;-70
2022/04/16 08:28:49;;;;;;;362.13;331.38;;;;;;;18.82;34.37;94556.78;5042222;28;20044;-70
2022/04/16 08:31:14;;;;;;;361.73;330.77;;;;;;;18.86;34.20;94565.50;5039655;28;20063;-70
2022/04/16 08:33:40;;;;;;;349.23;320.50;;;;;;;18.88;34.38;94560.38;5039736;28;20044;-69
2022/04/16 08:36:06;;;;;;;345.85;316.73;;;;;;;18.90;34.17;94563.41;5040481;28;21873;-69
2022/04/16 08:38:31;;;;;;;345.35;316.45;;;;;;;18.91;34.16;94559.50;5041642;28;20134;-68
2022/04/16 08:40:57;;;;;;;341.60;312.75;;;;;;;18.90;34.04;94556.03;5040671;28;20057;-69
2022/04/16 08:43:23;;;;;;;344.25;315.50;;;;;;;18.88;34.19;94554.97;5040102;28;20044;-69
2022/04/16 08:45:52;;;;;;;344.90;316.45;;;;;;;18.88;34.18;94553.00;5040736;28;20044;-69
2022/04/16 08:48:19;;;;;;;364.38;333.45;;;;;;;18.87;34.36;94546.06;5037674;28;20123;-69
2022/04/16 08:50:46;;;;;;;344.33;315.42;;;;;;;18.88;34.19;94547.59;5039152;28;20036;-69
2022/04/16 08:53:12;;;;;;;343.33;313.88;;;;;;;18.89;34.17;94553.75;5042406;28;20059;-69
2022/04/16 08:55:38;;;;;;;349.25;319.30;;;;;;;18.89;34.18;94546.38;5040455;28;20143;-69
2022/04/16 08:58:04;;;;;;;354.52;324.42;;;;;;;18.89;34.03;94543.69;5036772;28;20052;-69
2022/04/16 09:00:29;;;;;;;348.73;318.40;;;;;;;18.89;34.22;94551.06;5039804;28;20128;-69
2022/04/16 09:02:58;;;;;;;344.40;315.98;;;;;;;18.85;33.98;94548.47;5037580;28;21648;-70
2022/04/16 09:05:28;;;;;;;356.50;326.58;;;;;;;18.84;34.09;94552.41;5038392;28;20056;-69
2022/04/16 09:07:59;;;;;;;341.52;312.48;;;;;;;18.85;34.02;94550.47;5039261;28;20056;-69
2022/04/16 09:10:29;;;;;;;351.77;322.13;;;;;;;18.86;34.06;94560.06;5038605;28;20597;-69
2022/04/16 09:12:58;;;;;;;371.27;338.98;;;;;;;18.87;34.00;94565.03;5039957;28;20055;-70
2022/04/16 09:15:25;;;;;;;358.73;327.65;;;;;;;18.85;33.77;94553.16;5038683;28;20072;-70
2022/04/16 09:18:04;;;;;;;350.20;320.17;;;;;;;18.80;34.01;94562.63;5039216;28;20104;-70
2022/04/16 09:20:38;;;;;;;355.90;325.92;;;;;;;18.76;33.79;94556.59;5040608;28;20070;-70
2022/04/16 09:23:17;;;;;;;346.30;316.02;;;;;;;18.78;33.83;94558.88;5036917;28;20056;-69
2022/04/16 09:25:44;;;;;;;340.45;311.08;;;;;;;18.79;33.89;94566.53;5022468;28;20562;-69
2022/04/16 09:28:10;;;;;;;366.80;335.50;;;;;;;18.73;33.94;94571.03;5034406;28;20112;-69
2022/04/16 09:30:37;;;;;;;343.95;314.92;;;;;;;18.66;33.85;94569.34;5037206;28;20052;-70
2022/04/16 09:33:05;;;;;;;348.17;318.45;;;;;;;18.61;34.02;94569.91;5037923;28;20934;-70
2022/04/16 09:35:37;;;;;;;366.65;334.83;;;;;;;18.61;33.97;94575.34;5037064;28;20674;-69
2022/04/16 09:38:06;;;;;;;350.17;319.63;;;;;;;18.59;33.80;94582.38;5034537;28;20044;-70
2022/04/16 09:40:34;;;;;;;352.50;322.00;;;;;;;18.58;33.92;94583.56;5037760;28;20056;-69
2022/04/16 09:43:03;;;;;;;355.80;325.58;;;;;;;18.58;33.86;94581.59;5036770;28;20048;-70
2022/04/16 09:45:29;;;;;;;344.75;315.27;;;;;;;18.59;33.86;94585.06;5037890;28;20536;-69
2022/04/16 09:47:56;;;;;;;345.92;315.63;;;;;;;18.60;33.71;94581.94;5037516;28;20604;-69
2022/04/16 09:50:27;;;;;;;361.38;329.90;;;;;;;18.59;33.86;94576.94;5038116;28;20098;-69
2022/04/16 09:52:55;;;;;;;356.20;325.77;;;;;;;18.60;33.67;94579.25;5037555;28;20106;-69
2022/04/16 09:55:23;;;;;;;355.67;324.77;;;;;;;18.63;33.90;94580.31;5029559;28;20049;-69
2022/04/16 09:57:59;;;;;;;;;;;;;;;18.63;33.84;94591.16;5002302;28;20520;-70
2022/04/16 10:00:29;;;;;;;338.85;309.42;;;;;;;18.65;33.94;94589.50;5039640;28;19934;-70
2022/04/16 10:02:55;;;;;;;358.23;327.52;;;;;;;18.65;34.00;94588.75;5039090;28;20142;-70
2022/04/16 10:05:24;;;;;;;353.02;323.08;;;;;;;18.65;33.85;94592.22;5037860;28;20056;-70
2022/04/16 10:07:52;;;;;;;353.60;324.60;;;;;;;18.64;33.97;94592.66;5020654;28;21297;-70
2022/04/16 10:10:31;;;;;;;335.45;306.50;;;;;;;18.63;33.96;94593.84;5015645;28;20645;-70
2022/04/16 10:13:07;;;;;;;352.92;321.98;;;;;;;18.62;33.96;94598.53;5020768;28;20048;-70
2022/04/16 10:16:01;;;;;;;363.65;332.50;;;;;;;18.58;33.74;94595.16;5037889;28;20044;-70
2022/04/16 10:18:28;;;;;;;349.70;319.58;;;;;;;18.60;33.98;94602.84;5006151;28;20067;-69
2022/04/16 10:20:56;;;;;;;352.52;322.45;;;;;;;18.62;33.90;94593.09;5022888;28;20985;-70
2022/04/16 10:23:27;;;;;;;350.98;321.23;;;;;;;18.62;33.71;94592.34;5038815;28;21021;-69
2022/04/16 10:26:05;;;;;;;341.10;311.50;;;;;;;18.60;33.71;94595.50;5040068;28;20060;-69
2022/04/16 10:28:44;;;;;;;345.55;316.30;;;;;;;18.60;33.79;94597.41;5039431;28;20101;-70
2022/04/16 10:31:21;;;;;;;346.60;317.02;;;;;;;18.60;33.76;94603.63;5041945;28;20123;-68
2022/04/16 10:33:57;;;;;;;339.20;310.00;;;;;;;18.60;33.80;94609.03;5039686;28;20489;-70
2022/04/16 10:36:37;;;;;;;356.83;326.38;;;;;;;18.61;33.90;94612.50;5024521;28;20076;-70
2022/04/16 10:39:27;;;;;;;335.70;307.10;;;;;;;18.63;33.88;94607.41;5038763;28;20269;-70
2022/04/16 10:41:57;;;;;;;356.42;326.08;;;;;;;18.63;33.88;94610.88;5039652;28;20066;-68
2022/04/16 10:44:24;;;;;;;358.58;327.98;;;;;;;18.62;33.88;94611.31;5018481;28;21092;-70
2022/04/16 10:46:52;;;;;;;353.48;323.35;;;;;;;18.64;33.92;94615.09;5038757;28;20143;-73
2022/04/16 10:49:23;;;;;;;356.60;326.40;;;;;;;18.62;33.80;94614.78;5035630;28;20052;-69
2022/04/16 10:51:52;;;;;;;356.15;326.23;;;;;;;18.64;33.75;94619.75;5023406;28;20059;-71
2022/04/16 10:54:34;;;;;;;353.80;324.13;;;;;;;18.62;33.73;94627.56;5042669;28;20044;-70
2022/04/16 10:57:02;;;;;;;350.40;320.60;;;;;;;18.64;33.72;94620.50;5038953;28;20047;-68
2022/04/16 10:59:41;;;;;;;348.90;318.40;;;;;;;18.64;34.07;94623.22;5039505;28;20145;-67
2022/04/16 11:02:37;;;;;;;346.40;316.52;;;;;;;18.67;33.83;94625.03;5037873;28;21369;-70
2022/04/16 11:05:07;;;;;;;351.30;320.38;;;;;;;18.68;33.49;94628.50;5017527;28;20120;-68
2022/04/16 11:07:35;;;;;;;360.27;328.08;;;;;;;18.66;33.72;94628.94;5032409;28;20436;-69
2022/04/16 11:10:03;;;;;;;365.88;334.35;;;;;;;18.65;33.74;94626.69;5012346;28;20072;-68
2022/04/16 11:12:29;;;;;;;347.23;317.23;;;;;;;18.66;33.98;94628.19;5035962;28;20051;-68
2022/04/16 11:14:55;;;;;;;352.65;321.75;;;;;;;18.66;33.88;94626.22;5035263;28;20057;-69
2022/04/16 11:17:21;;;;;;;364.98;333.30;;;;;;;18.66;33.57;94623.53;5030489;28;20781;-70
2022/04/16 11:20:06;;;;;;;345.92;316.38;;;;;;;18.65;33.76;94618.56;5018814;28;20090;-70